createdAt,value
2018-04-02T00:01:36.900Z,8.41
2018-04-02T00:04:05.277Z,8.43
2018-04-02T00:06:33.634Z,8.41
2018-04-02T00:09:02.004Z,8.40
2018-04-02T00:11:30.195Z,8.36
2018-04-02T00:13:58.304Z,8.29
2018-04-02T00:16:26.657Z,8.27
2018-04-02T00:18:55.221Z,8.29
2018-04-02T00:21:24.441Z,8.28
2018-04-02T00:23:52.801Z,8.26
2018-04-02T00:26:21.150Z,8.27
2018-04-02T00:28:49.499Z,8.29
2018-04-02T00:34:06.456Z,8.27
2018-04-02T00:36:34.835Z,8.27
2018-04-02T00:39:02.952Z,8.17
2018-04-02T00:41:31.083Z,8.20
2018-04-02T00:43:59.435Z,8.25
2018-04-02T00:46:27.788Z,8.21
2018-04-02T00:48:56.154Z,8.18
2018-04-02T00:51:36.482Z,8.24
2018-04-02T00:54:04.693Z,8.18
2018-04-02T00:56:33.029Z,8.17
2018-04-02T00:59:11.601Z,8.16
2018-04-02T01:01:39.960Z,8.22
2018-04-02T01:04:30.366Z,8.24
2018-04-02T01:06:58.726Z,8.28
2018-04-02T01:09:27.101Z,8.27
2018-04-02T01:11:55.546Z,8.22
2018-04-02T01:14:27.773Z,8.24
2018-04-02T01:17:08.276Z,8.27
2018-04-02T01:19:50.791Z,8.18
2018-04-02T01:22:19.175Z,8.12
2018-04-02T01:24:47.542Z,8.13
2018-04-02T01:27:15.875Z,8.14
2018-04-02T01:29:44.233Z,8.14
2018-04-02T01:32:12.577Z,8.15
2018-04-02T01:35:00.189Z,8.11
2018-04-02T01:37:28.736Z,8.05
2018-04-02T01:40:09.069Z,8.16
2018-04-02T01:42:37.461Z,8.09
2018-04-02T01:45:05.830Z,8.12
2018-04-02T01:47:34.209Z,8.18
2018-04-02T01:50:02.620Z,8.28
2018-04-02T01:52:31.120Z,8.29
2018-04-02T01:54:59.479Z,8.24
2018-04-02T01:57:27.833Z,8.35
2018-04-02T02:00:10.838Z,8.37
2018-04-02T02:02:38.950Z,8.41
2018-04-02T02:05:07.330Z,8.43
2018-04-02T02:07:35.694Z,8.40
2018-04-02T02:10:03.847Z,8.41
2018-04-02T02:12:32.198Z,8.44
2018-04-02T02:15:00.565Z,8.49
2018-04-02T02:17:28.925Z,8.41
2018-04-02T02:19:57.306Z,8.18
2018-04-02T02:22:25.431Z,7.87
2018-04-02T02:24:53.793Z,7.75
2018-04-02T02:27:22.166Z,7.67
2018-04-02T02:29:50.542Z,7.68
2018-04-02T02:32:18.907Z,7.74
2018-04-02T02:34:47.263Z,7.72
2018-04-02T02:37:15.621Z,7.83
2018-04-02T02:39:44.002Z,7.86
2018-04-02T02:42:12.307Z,7.94
2018-04-02T02:44:40.437Z,7.72
2018-04-02T02:47:08.580Z,7.38
2018-04-02T02:49:36.933Z,7.16
2018-04-02T02:52:05.302Z,7.10
2018-04-02T02:54:33.665Z,7.17
2018-04-02T02:57:02.193Z,7.24
2018-04-02T02:59:30.578Z,7.31
2018-04-02T03:01:58.927Z,7.42
2018-04-02T03:04:27.288Z,7.51
2018-04-02T03:06:55.429Z,7.67
2018-04-02T03:09:24.019Z,7.62
2018-04-02T03:11:52.377Z,7.43
2018-04-02T03:14:20.511Z,7.22
2018-04-02T03:19:43.701Z,7.31
2018-04-02T03:22:12.058Z,7.35
2018-04-02T03:24:40.422Z,7.22
2018-04-02T03:27:08.776Z,7.08
2018-04-02T03:29:37.124Z,7.10
2018-04-02T03:32:05.466Z,7.06
2018-04-02T03:34:33.832Z,7.12
2018-04-02T03:37:02.229Z,7.13
2018-04-02T03:39:37.160Z,7.21
2018-04-02T03:42:05.499Z,7.35
2018-04-02T03:44:33.850Z,7.32
2018-04-02T03:47:02.202Z,7.43
2018-04-02T03:49:30.570Z,7.52
2018-04-02T03:51:58.929Z,7.60
2018-04-02T03:54:27.329Z,7.62
2018-04-02T03:56:55.694Z,7.74
2018-04-02T03:59:24.041Z,7.81
2018-04-02T04:01:52.388Z,7.84
2018-04-02T04:04:20.760Z,7.88
2018-04-02T04:06:49.128Z,7.88
2018-04-02T07:19:12.423Z,8.51
2018-04-02T07:21:40.835Z,8.62
2018-04-02T07:24:15.505Z,8.58
2018-04-02T08:09:51.491Z,10.66
2018-04-02T08:12:37.918Z,10.52
2018-04-02T10:50:40.965Z,11.89
2018-04-02T10:53:27.537Z,11.86
2018-04-02T11:01:42.181Z,12.19
2018-04-02T11:04:24.667Z,12.17
2018-04-02T11:06:53.050Z,12.36
2018-04-02T11:12:31.711Z,12.44
2018-04-02T11:14:59.916Z,12.32
2018-04-02T11:17:28.270Z,12.12
2018-04-02T11:19:56.424Z,11.95
2018-04-02T11:22:24.776Z,11.95
2018-04-02T11:27:46.352Z,11.64
2018-04-02T11:30:14.736Z,11.63
2018-04-02T11:32:43.072Z,11.70
2018-04-02T11:35:23.674Z,11.81
2018-04-02T11:37:51.811Z,11.73
2018-04-02T11:40:38.966Z,11.77
2018-04-02T11:43:29.518Z,11.89
2018-04-02T11:45:57.882Z,11.86
2018-04-02T11:48:26.277Z,12.01
2018-04-02T11:50:54.636Z,12.16
2018-04-02T11:53:35.420Z,12.18
2018-04-02T11:56:03.776Z,12.38
2018-04-02T11:58:36.794Z,12.51
2018-04-02T12:01:04.932Z,12.77
2018-04-02T12:03:33.291Z,12.91
2018-04-02T12:06:01.426Z,13.26
2018-04-02T12:08:29.804Z,13.08
2018-04-02T12:10:58.889Z,12.95
2018-04-02T12:13:27.272Z,13.21
2018-04-02T12:15:55.638Z,13.27
2018-04-02T12:18:24.031Z,13.38
2018-04-02T12:20:52.416Z,12.93
2018-04-02T12:23:20.970Z,12.92
2018-04-02T12:25:49.356Z,12.89
2018-04-02T12:28:17.715Z,12.77
2018-04-02T12:30:46.069Z,12.83
2018-04-02T12:33:14.441Z,13.04
2018-04-02T12:35:42.793Z,13.31
2018-04-02T12:40:59.622Z,13.38
2018-04-02T12:43:27.989Z,13.38
2018-04-02T12:45:56.402Z,13.34
2018-04-02T12:48:24.792Z,13.21
2018-04-02T12:50:53.162Z,13.05
2018-04-02T12:53:21.561Z,13.10
2018-04-02T12:55:49.905Z,13.16
2018-04-02T12:58:18.267Z,13.22
2018-04-02T13:00:46.655Z,13.11
2018-04-02T13:03:15.034Z,13.21
2018-04-02T13:05:43.165Z,13.34
2018-04-02T13:08:11.534Z,13.49
2018-04-02T13:10:39.915Z,13.47
2018-04-02T13:15:47.971Z,13.49
2018-04-02T13:18:16.354Z,13.44
2018-04-02T13:20:44.992Z,13.40
2018-04-02T13:26:17.542Z,13.46
2018-04-02T13:28:46.026Z,13.47
2018-04-02T13:31:14.415Z,13.51
2018-04-02T13:33:42.782Z,13.61
2018-04-02T13:36:11.164Z,13.72
2018-04-02T13:38:39.511Z,13.79
2018-04-02T13:41:07.860Z,13.86
2018-04-02T13:43:36.242Z,13.81
2018-04-02T13:46:04.599Z,13.75
2018-04-02T13:48:32.979Z,13.57
2018-04-02T13:51:01.359Z,13.75
2018-04-02T13:56:21.236Z,13.67
2018-04-02T14:01:39.473Z,13.76
2018-04-02T14:04:07.831Z,13.90
2018-04-02T14:29:36.024Z,13.84
2018-04-02T14:32:04.423Z,13.83
2018-04-02T14:34:32.809Z,13.69
2018-04-02T14:37:01.157Z,13.61
2018-04-02T14:39:29.576Z,13.60
2018-04-02T14:41:57.955Z,13.60
2018-04-02T14:44:26.320Z,13.53
2018-04-02T14:46:54.670Z,13.50
2018-04-02T14:49:23.024Z,13.51
2018-04-02T14:51:51.387Z,13.45
2018-04-02T14:54:19.500Z,13.44
2018-04-02T14:56:48.664Z,13.64
2018-04-02T14:59:17.027Z,13.71
2018-04-02T15:01:45.378Z,13.66
2018-04-02T15:04:13.788Z,13.58
2018-04-02T15:06:42.323Z,13.51
2018-04-02T15:09:10.667Z,13.59
2018-04-02T15:11:39.138Z,13.68
2018-04-02T16:26:13.256Z,13.15
2018-04-02T16:31:53.014Z,13.04
2018-04-02T16:34:21.388Z,12.99
2018-04-02T16:36:49.748Z,12.94
2018-04-02T16:39:18.297Z,12.89
2018-04-02T16:42:04.788Z,12.89
2018-04-02T16:44:33.155Z,12.83
2018-04-02T16:47:01.505Z,12.78
2018-04-02T16:49:29.866Z,12.72
2018-04-02T16:52:11.019Z,12.67
2018-04-02T16:54:55.561Z,12.63
2018-04-02T16:57:23.987Z,12.59
2018-04-02T17:02:49.703Z,12.48
2018-04-02T17:05:18.124Z,12.47
2018-04-02T17:07:46.486Z,12.47
2018-04-02T17:10:14.865Z,12.40
2018-04-02T17:30:10.379Z,12.15
2018-04-02T17:32:38.765Z,12.05
2018-04-02T17:35:07.164Z,11.93
2018-04-02T17:37:35.513Z,11.78
2018-04-02T17:40:03.862Z,11.71
2018-04-02T18:02:43.491Z,11.31
2018-04-02T18:05:12.884Z,11.36
2018-04-02T18:10:33.581Z,11.31
2018-04-02T18:13:01.708Z,11.33
2018-04-02T18:15:36.892Z,11.35
2018-04-02T18:18:05.249Z,11.32
2018-04-02T18:20:49.432Z,11.34
2018-04-02T18:26:16.845Z,11.32
2018-04-02T18:28:45.212Z,11.30
2018-04-02T18:34:03.973Z,11.23
2018-04-02T18:36:32.338Z,11.19
2018-04-02T18:39:00.728Z,11.15
2018-04-02T18:41:29.115Z,11.05
2018-04-02T18:43:59.125Z,10.93
2018-04-02T18:55:16.203Z,10.58
2018-04-02T18:57:44.555Z,10.53
2018-04-02T19:00:12.917Z,10.51
2018-04-02T19:02:41.312Z,10.48
2018-04-02T19:05:09.882Z,10.47
2018-04-02T19:07:38.309Z,10.45
2018-04-02T19:10:06.446Z,10.44
2018-04-02T19:47:04.959Z,10.47
2018-04-02T22:02:12.354Z,8.68
2018-04-02T22:04:40.798Z,8.67
2018-04-02T22:07:09.144Z,8.61
2018-04-02T22:09:37.560Z,8.57
2018-04-02T22:12:18.914Z,8.58
2018-04-02T22:15:05.608Z,8.52
2018-04-02T22:17:33.976Z,8.57
2018-04-02T22:20:02.365Z,8.45
2018-04-02T22:22:47.057Z,8.29
2018-04-02T22:25:15.452Z,8.27
2018-04-02T22:27:43.849Z,8.24
2018-04-02T22:30:12.044Z,8.24
2018-04-02T23:30:28.901Z,8.64
2018-04-02T23:32:57.290Z,8.53
2018-04-02T23:35:39.701Z,8.55
